sensor_id;sensor_type;location;lat;lon;timestamp;P1;durP1;ratioP1;P2;durP2;ratioP2
76292;SDS011;67256;51.154;4.164;2024-03-23T00:53:13;10.98;;;4.63;;
76292;SDS011;67256;51.154;4.164;2024-03-23T00:55:40;13.93;;;4.60;;
76292;SDS011;67256;51.154;4.164;2024-03-23T00:58:06;11.82;;;6.22;;
76292;SDS011;67256;51.154;4.164;2024-03-23T01:00:31;14.15;;;6.50;;
76292;SDS011;67256;51.154;4.164;2024-03-23T01:02:57;18.55;;;6.18;;
76292;SDS011;67256;51.154;4.164;2024-03-23T01:05:23;17.70;;;6.65;;
76292;SDS011;67256;51.154;4.164;2024-03-23T01:07:48;15.88;;;7.55;;
76292;SDS011;67256;51.154;4.164;2024-03-23T01:10:14;22.02;;;7.47;;
76292;SDS011;67256;51.154;4.164;2024-03-23T01:12:40;25.63;;;8.10;;
76292;SDS011;67256;51.154;4.164;2024-03-23T01:15:06;24.45;;;8.90;;
76292;SDS011;67256;51.154;4.164;2024-03-23T01:17:31;18.23;;;8.85;;
76292;SDS011;67256;51.154;4.164;2024-03-23T01:19:57;19.83;;;9.35;;
76292;SDS011;67256;51.154;4.164;2024-03-23T01:22:23;28.73;;;10.27;;
76292;SDS011;67256;51.154;4.164;2024-03-23T01:24:48;27.52;;;11.52;;
76292;SDS011;67256;51.154;4.164;2024-03-23T01:27:14;24.30;;;10.73;;
76292;SDS011;67256;51.154;4.164;2024-03-23T01:29:40;26.85;;;10.93;;
76292;SDS011;67256;51.154;4.164;2024-03-23T01:32:05;35.25;;;10.77;;
76292;SDS011;67256;51.154;4.164;2024-03-23T01:34:32;30.08;;;11.35;;
76292;SDS011;67256;51.154;4.164;2024-03-23T01:36:57;28.83;;;11.55;;
76292;SDS011;67256;51.154;4.164;2024-03-23T01:39:23;39.72;;;11.82;;
76292;SDS011;67256;51.154;4.164;2024-03-23T01:41:49;29.00;;;12.57;;
76292;SDS011;67256;51.154;4.164;2024-03-23T01:44:16;21.58;;;10.40;;
76292;SDS011;67256;51.154;4.164;2024-03-23T01:46:42;30.60;;;11.65;;
76292;SDS011;67256;51.154;4.164;2024-03-23T01:49:09;30.20;;;10.85;;
76292;SDS011;67256;51.154;4.164;2024-03-23T01:51:35;28.67;;;12.18;;
76292;SDS011;67256;51.154;4.164;2024-03-23T01:54:01;31.15;;;10.77;;
76292;SDS011;67256;51.154;4.164;2024-03-23T01:56:32;23.85;;;8.68;;
76292;SDS011;67256;51.154;4.164;2024-03-23T01:59:00;26.17;;;9.98;;
76292;SDS011;67256;51.154;4.164;2024-03-23T02:01:30;20.83;;;8.57;;
76292;SDS011;67256;51.154;4.164;2024-03-23T02:03:56;25.60;;;8.30;;
76292;SDS011;67256;51.154;4.164;2024-03-23T02:06:22;28.23;;;8.90;;
76292;SDS011;67256;51.154;4.164;2024-03-23T02:08:49;22.38;;;6.85;;
76292;SDS011;67256;51.154;4.164;2024-03-23T02:11:14;20.75;;;5.90;;
76292;SDS011;67256;51.154;4.164;2024-03-23T02:13:40;22.65;;;6.38;;
76292;SDS011;67256;51.154;4.164;2024-03-23T02:16:06;21.95;;;6.88;;
76292;SDS011;67256;51.154;4.164;2024-03-23T02:18:32;21.10;;;6.10;;
76292;SDS011;67256;51.154;4.164;2024-03-23T02:20:58;21.20;;;6.43;;
76292;SDS011;67256;51.154;4.164;2024-03-23T02:23:23;18.83;;;6.20;;
76292;SDS011;67256;51.154;4.164;2024-03-23T02:25:52;18.02;;;6.50;;
76292;SDS011;67256;51.154;4.164;2024-03-23T02:28:20;21.83;;;5.88;;
76292;SDS011;67256;51.154;4.164;2024-03-23T02:30:48;19.27;;;6.55;;
76292;SDS011;67256;51.154;4.164;2024-03-23T02:33:14;27.25;;;7.55;;
76292;SDS011;67256;51.154;4.164;2024-03-23T02:35:39;18.45;;;6.63;;
76292;SDS011;67256;51.154;4.164;2024-03-23T02:38:05;28.80;;;7.72;;
76292;SDS011;67256;51.154;4.164;2024-03-23T02:40:31;27.95;;;6.10;;
76292;SDS011;67256;51.154;4.164;2024-03-23T02:42:57;19.50;;;5.55;;
76292;SDS011;67256;51.154;4.164;2024-03-23T02:45:22;16.33;;;5.88;;
76292;SDS011;67256;51.154;4.164;2024-03-23T02:47:48;20.90;;;5.63;;
76292;SDS011;67256;51.154;4.164;2024-03-23T02:50:20;20.40;;;6.10;;
76292;SDS011;67256;51.154;4.164;2024-03-23T02:52:46;23.52;;;5.45;;
76292;SDS011;67256;51.154;4.164;2024-03-23T02:55:12;17.63;;;5.30;;
76292;SDS011;67256;51.154;4.164;2024-03-23T02:57:38;22.95;;;6.10;;
76292;SDS011;67256;51.154;4.164;2024-03-23T03:00:04;18.77;;;5.10;;
76292;SDS011;67256;51.154;4.164;2024-03-23T03:02:31;15.93;;;5.15;;
76292;SDS011;67256;51.154;4.164;2024-03-23T03:04:57;14.57;;;4.90;;
76292;SDS011;67256;51.154;4.164;2024-03-23T03:07:23;16.45;;;4.88;;
76292;SDS011;67256;51.154;4.164;2024-03-23T03:09:48;16.05;;;4.90;;
76292;SDS011;67256;51.154;4.164;2024-03-23T03:12:14;13.38;;;4.57;;
76292;SDS011;67256;51.154;4.164;2024-03-23T03:14:39;16.70;;;4.95;;
76292;SDS011;67256;51.154;4.164;2024-03-23T03:17:05;14.30;;;3.80;;
76292;SDS011;67256;51.154;4.164;2024-03-23T03:19:31;14.30;;;5.38;;
76292;SDS011;67256;51.154;4.164;2024-03-23T03:21:57;22.05;;;4.40;;
76292;SDS011;67256;51.154;4.164;2024-03-23T03:24:23;31.27;;;5.30;;
76292;SDS011;67256;51.154;4.164;2024-03-23T03:26:49;20.55;;;5.00;;
76292;SDS011;67256;51.154;4.164;2024-03-23T03:29:15;15.63;;;4.38;;
76292;SDS011;67256;51.154;4.164;2024-03-23T03:31:41;10.30;;;4.05;;
76292;SDS011;67256;51.154;4.164;2024-03-23T03:34:09;22.00;;;4.45;;
76292;SDS011;67256;51.154;4.164;2024-03-23T03:36:35;20.70;;;5.78;;
76292;SDS011;67256;51.154;4.164;2024-03-23T03:39:01;17.65;;;5.13;;
76292;SDS011;67256;51.154;4.164;2024-03-23T03:41:28;22.17;;;6.85;;
76292;SDS011;67256;51.154;4.164;2024-03-23T03:43:54;19.58;;;6.15;;
76292;SDS011;67256;51.154;4.164;2024-03-23T03:46:20;18.88;;;6.00;;
76292;SDS011;67256;51.154;4.164;2024-03-23T03:48:46;19.92;;;6.05;;
76292;SDS011;67256;51.154;4.164;2024-03-23T03:51:13;13.98;;;6.38;;
76292;SDS011;67256;51.154;4.164;2024-03-23T03:53:39;22.58;;;6.32;;
76292;SDS011;67256;51.154;4.164;2024-03-23T03:56:04;19.40;;;6.47;;
76292;SDS011;67256;51.154;4.164;2024-03-23T03:58:30;23.05;;;6.35;;
76292;SDS011;67256;51.154;4.164;2024-03-23T04:00:56;19.92;;;5.22;;
76292;SDS011;67256;51.154;4.164;2024-03-23T04:03:22;17.05;;;5.65;;
76292;SDS011;67256;51.154;4.164;2024-03-23T04:05:54;23.85;;;6.22;;
76292;SDS011;67256;51.154;4.164;2024-03-23T04:08:20;16.73;;;5.63;;
76292;SDS011;67256;51.154;4.164;2024-03-23T04:10:46;28.83;;;6.03;;
76292;SDS011;67256;51.154;4.164;2024-03-23T04:13:12;23.92;;;5.72;;
76292;SDS011;67256;51.154;4.164;2024-03-23T04:15:38;20.00;;;6.05;;
76292;SDS011;67256;51.154;4.164;2024-03-23T04:18:04;21.60;;;6.20;;
76292;SDS011;67256;51.154;4.164;2024-03-23T04:20:30;18.52;;;5.90;;
76292;SDS011;67256;51.154;4.164;2024-03-23T04:22:57;15.27;;;4.88;;
76292;SDS011;67256;51.154;4.164;2024-03-23T04:25:23;17.85;;;5.30;;
76292;SDS011;67256;51.154;4.164;2024-03-23T04:27:49;21.73;;;5.78;;
76292;SDS011;67256;51.154;4.164;2024-03-23T04:30:14;16.23;;;5.75;;
76292;SDS011;67256;51.154;4.164;2024-03-23T04:32:41;19.80;;;6.30;;
76292;SDS011;67256;51.154;4.164;2024-03-23T04:35:07;14.77;;;5.25;;
76292;SDS011;67256;51.154;4.164;2024-03-23T04:37:36;17.02;;;5.90;;
76292;SDS011;67256;51.154;4.164;2024-03-23T04:40:02;20.02;;;6.35;;
76292;SDS011;67256;51.154;4.164;2024-03-23T04:42:29;21.67;;;6.65;;
76292;SDS011;67256;51.154;4.164;2024-03-23T04:44:55;26.33;;;7.55;;
76292;SDS011;67256;51.154;4.164;2024-03-23T04:47:21;14.00;;;5.30;;
76292;SDS011;67256;51.154;4.164;2024-03-23T04:49:47;18.58;;;5.93;;
76292;SDS011;67256;51.154;4.164;2024-03-23T04:52:13;16.60;;;6.18;;
76292;SDS011;67256;51.154;4.164;2024-03-23T04:54:39;21.00;;;6.07;;
76292;SDS011;67256;51.154;4.164;2024-03-23T04:57:08;12.00;;;5.77;;
76292;SDS011;67256;51.154;4.164;2024-03-23T04:59:33;16.33;;;6.45;;
76292;SDS011;67256;51.154;4.164;2024-03-23T05:01:59;21.88;;;6.13;;
76292;SDS011;67256;51.154;4.164;2024-03-23T05:04:25;20.50;;;6.97;;
76292;SDS011;67256;51.154;4.164;2024-03-23T05:06:51;17.73;;;6.47;;
76292;SDS011;67256;51.154;4.164;2024-03-23T05:09:17;19.42;;;6.22;;
76292;SDS011;67256;51.154;4.164;2024-03-23T05:11:42;16.50;;;6.78;;
76292;SDS011;67256;51.154;4.164;2024-03-23T05:14:08;11.45;;;5.18;;
76292;SDS011;67256;51.154;4.164;2024-03-23T05:16:34;21.02;;;5.90;;
76292;SDS011;67256;51.154;4.164;2024-03-23T05:19:00;20.55;;;5.95;;
76292;SDS011;67256;51.154;4.164;2024-03-23T05:21:26;17.45;;;5.35;;
76292;SDS011;67256;51.154;4.164;2024-03-23T05:23:53;19.85;;;5.25;;
76292;SDS011;67256;51.154;4.164;2024-03-23T05:26:19;15.30;;;4.45;;
76292;SDS011;67256;51.154;4.164;2024-03-23T05:28:45;16.35;;;4.45;;
76292;SDS011;67256;51.154;4.164;2024-03-23T05:31:11;23.77;;;5.53;;
76292;SDS011;67256;51.154;4.164;2024-03-23T05:33:36;20.88;;;5.43;;
76292;SDS011;67256;51.154;4.164;2024-03-23T05:36:06;21.55;;;5.47;;
76292;SDS011;67256;51.154;4.164;2024-03-23T05:38:36;17.10;;;4.45;;
76292;SDS011;67256;51.154;4.164;2024-03-23T05:41:01;20.23;;;4.75;;
76292;SDS011;67256;51.154;4.164;2024-03-23T05:43:27;22.60;;;5.35;;
76292;SDS011;67256;51.154;4.164;2024-03-23T05:45:57;12.10;;;3.15;;
76292;SDS011;67256;51.154;4.164;2024-03-23T05:48:23;14.82;;;3.60;;
76292;SDS011;67256;51.154;4.164;2024-03-23T05:50:50;23.77;;;4.03;;
76292;SDS011;67256;51.154;4.164;2024-03-23T05:53:16;22.63;;;4.47;;
76292;SDS011;67256;51.154;4.164;2024-03-23T05:55:42;13.50;;;2.92;;
76292;SDS011;67256;51.154;4.164;2024-03-23T05:58:08;18.58;;;4.57;;
76292;SDS011;67256;51.154;4.164;2024-03-23T06:00:35;18.83;;;3.63;;
76292;SDS011;67256;51.154;4.164;2024-03-23T06:03:01;11.38;;;3.20;;
76292;SDS011;67256;51.154;4.164;2024-03-23T06:05:27;12.43;;;3.40;;
76292;SDS011;67256;51.154;4.164;2024-03-23T06:07:52;17.63;;;4.05;;
76292;SDS011;67256;51.154;4.164;2024-03-23T06:10:18;12.93;;;3.80;;
76292;SDS011;67256;51.154;4.164;2024-03-23T06:12:45;11.95;;;3.22;;
76292;SDS011;67256;51.154;4.164;2024-03-23T06:15:11;14.68;;;4.03;;
76292;SDS011;67256;51.154;4.164;2024-03-23T06:17:37;21.30;;;4.30;;
76292;SDS011;67256;51.154;4.164;2024-03-23T06:20:03;12.55;;;4.22;;
76292;SDS011;67256;51.154;4.164;2024-03-23T06:22:31;15.77;;;3.28;;
76292;SDS011;67256;51.154;4.164;2024-03-23T06:24:57;19.75;;;4.15;;
76292;SDS011;67256;51.154;4.164;2024-03-23T06:27:23;13.85;;;3.72;;
76292;SDS011;67256;51.154;4.164;2024-03-23T06:29:48;17.83;;;4.28;;
76292;SDS011;67256;51.154;4.164;2024-03-23T06:32:14;17.77;;;4.15;;
76292;SDS011;67256;51.154;4.164;2024-03-23T06:34:43;17.25;;;4.60;;
76292;SDS011;67256;51.154;4.164;2024-03-23T06:37:08;19.42;;;3.60;;
76292;SDS011;67256;51.154;4.164;2024-03-23T06:39:37;14.65;;;5.20;;
76292;SDS011;67256;51.154;4.164;2024-03-23T06:42:03;18.42;;;4.10;;
76292;SDS011;67256;51.154;4.164;2024-03-23T06:44:31;20.23;;;4.68;;
76292;SDS011;67256;51.154;4.164;2024-03-23T06:46:57;16.00;;;4.65;;
76292;SDS011;67256;51.154;4.164;2024-03-23T06:49:22;15.32;;;4.15;;
76292;SDS011;67256;51.154;4.164;2024-03-23T06:51:48;15.50;;;4.05;;
76292;SDS011;67256;51.154;4.164;2024-03-23T06:54:14;15.60;;;4.25;;
76292;SDS011;67256;51.154;4.164;2024-03-23T06:56:44;15.02;;;4.05;;
76292;SDS011;67256;51.154;4.164;2024-03-23T06:59:10;10.82;;;2.60;;
76292;SDS011;67256;51.154;4.164;2024-03-23T07:01:35;11.77;;;3.60;;
76292;SDS011;67256;51.154;4.164;2024-03-23T07:04:01;10.40;;;2.40;;
76292;SDS011;67256;51.154;4.164;2024-03-23T07:06:27;14.55;;;3.35;;
76292;SDS011;67256;51.154;4.164;2024-03-23T07:08:53;17.40;;;2.80;;
76292;SDS011;67256;51.154;4.164;2024-03-23T07:11:19;16.05;;;4.07;;
76292;SDS011;67256;51.154;4.164;2024-03-23T07:13:52;11.55;;;3.22;;
76292;SDS011;67256;51.154;4.164;2024-03-23T07:16:21;16.55;;;3.70;;
76292;SDS011;67256;51.154;4.164;2024-03-23T07:18:49;9.02;;;2.80;;
76292;SDS011;67256;51.154;4.164;2024-03-23T07:21:15;10.90;;;2.85;;
76292;SDS011;67256;51.154;4.164;2024-03-23T07:23:44;15.15;;;3.25;;
76292;SDS011;67256;51.154;4.164;2024-03-23T07:26:10;13.47;;;2.77;;
76292;SDS011;67256;51.154;4.164;2024-03-23T07:28:36;17.98;;;3.10;;
76292;SDS011;67256;51.154;4.164;2024-03-23T07:31:13;20.92;;;3.20;;
76292;SDS011;67256;51.154;4.164;2024-03-23T07:33:49;14.27;;;3.17;;
76292;SDS011;67256;51.154;4.164;2024-03-23T07:36:15;14.10;;;3.10;;
76292;SDS011;67256;51.154;4.164;2024-03-23T07:38:41;11.65;;;3.60;;
76292;SDS011;67256;51.154;4.164;2024-03-23T07:41:17;11.25;;;3.10;;
76292;SDS011;67256;51.154;4.164;2024-03-23T07:43:44;13.68;;;2.83;;
76292;SDS011;67256;51.154;4.164;2024-03-23T07:46:10;13.52;;;3.13;;
76292;SDS011;67256;51.154;4.164;2024-03-23T07:48:37;12.88;;;3.40;;
76292;SDS011;67256;51.154;4.164;2024-03-23T07:58:27;17.80;;;3.60;;
76292;SDS011;67256;51.154;4.164;2024-03-23T08:00:54;11.63;;;3.00;;
76292;SDS011;67256;51.154;4.164;2024-03-23T08:03:20;18.08;;;3.88;;
76292;SDS011;67256;51.154;4.164;2024-03-23T08:05:46;14.80;;;3.35;;
76292;SDS011;67256;51.154;4.164;2024-03-23T08:08:12;12.23;;;3.17;;
76292;SDS011;67256;51.154;4.164;2024-03-23T08:10:47;11.65;;;4.20;;
76292;SDS011;67256;51.154;4.164;2024-03-23T08:13:17;11.53;;;3.43;;
76292;SDS011;67256;51.154;4.164;2024-03-23T08:15:43;13.43;;;3.08;;
76292;SDS011;67256;51.154;4.164;2024-03-23T08:18:10;14.77;;;3.00;;
76292;SDS011;67256;51.154;4.164;2024-03-23T08:20:36;8.85;;;2.45;;
76292;SDS011;67256;51.154;4.164;2024-03-23T08:23:02;18.58;;;3.45;;
76292;SDS011;67256;51.154;4.164;2024-03-23T08:25:30;13.77;;;3.22;;
76292;SDS011;67256;51.154;4.164;2024-03-23T08:27:56;13.35;;;4.25;;
76292;SDS011;67256;51.154;4.164;2024-03-23T08:30:21;12.40;;;4.72;;
76292;SDS011;67256;51.154;4.164;2024-03-23T08:32:47;8.98;;;3.38;;
76292;SDS011;67256;51.154;4.164;2024-03-23T08:35:13;12.20;;;2.95;;
76292;SDS011;67256;51.154;4.164;2024-03-23T08:37:39;20.25;;;4.60;;
76292;SDS011;67256;51.154;4.164;2024-03-23T08:40:05;12.75;;;3.03;;
76292;SDS011;67256;51.154;4.164;2024-03-23T08:42:31;14.07;;;3.03;;
76292;SDS011;67256;51.154;4.164;2024-03-23T08:44:57;7.57;;;2.78;;
76292;SDS011;67256;51.154;4.164;2024-03-23T08:47:22;12.10;;;3.47;;
76292;SDS011;67256;51.154;4.164;2024-03-23T08:49:48;11.40;;;2.97;;
76292;SDS011;67256;51.154;4.164;2024-03-23T08:52:14;17.05;;;3.08;;
76292;SDS011;67256;51.154;4.164;2024-03-23T08:54:40;10.13;;;3.10;;
76292;SDS011;67256;51.154;4.164;2024-03-23T08:57:05;11.23;;;2.88;;
76292;SDS011;67256;51.154;4.164;2024-03-23T08:59:33;16.63;;;3.30;;
76292;SDS011;67256;51.154;4.164;2024-03-23T09:01:58;11.15;;;3.28;;
76292;SDS011;67256;51.154;4.164;2024-03-23T09:04:24;16.27;;;3.28;;
76292;SDS011;67256;51.154;4.164;2024-03-23T09:06:50;12.05;;;2.67;;
76292;SDS011;67256;51.154;4.164;2024-03-23T09:09:16;11.65;;;3.38;;
76292;SDS011;67256;51.154;4.164;2024-03-23T09:11:42;11.57;;;3.55;;
76292;SDS011;67256;51.154;4.164;2024-03-23T09:14:07;14.07;;;2.97;;
76292;SDS011;67256;51.154;4.164;2024-03-23T09:16:34;15.93;;;3.45;;
76292;SDS011;67256;51.154;4.164;2024-03-23T09:19:00;12.65;;;2.38;;
76292;SDS011;67256;51.154;4.164;2024-03-23T09:21:26;8.13;;;1.80;;
76292;SDS011;67256;51.154;4.164;2024-03-23T09:23:52;9.57;;;2.05;;
76292;SDS011;67256;51.154;4.164;2024-03-23T09:26:17;8.05;;;1.92;;
76292;SDS011;67256;51.154;4.164;2024-03-23T09:28:43;6.18;;;1.73;;
76292;SDS011;67256;51.154;4.164;2024-03-23T09:31:09;11.50;;;2.10;;
76292;SDS011;67256;51.154;4.164;2024-03-23T09:36:05;5.50;;;2.05;;
76292;SDS011;67256;51.154;4.164;2024-03-23T09:38:31;5.18;;;1.40;;
76292;SDS011;67256;51.154;4.164;2024-03-23T09:40:57;9.18;;;2.60;;
76292;SDS011;67256;51.154;4.164;2024-03-23T09:43:24;9.68;;;2.22;;
76292;SDS011;67256;51.154;4.164;2024-03-23T09:45:50;6.28;;;2.00;;
76292;SDS011;67256;51.154;4.164;2024-03-23T09:48:16;8.32;;;2.67;;
76292;SDS011;67256;51.154;4.164;2024-03-23T09:50:43;8.27;;;1.70;;
76292;SDS011;67256;51.154;4.164;2024-03-23T09:53:13;8.30;;;1.77;;
76292;SDS011;67256;51.154;4.164;2024-03-23T09:58:06;9.48;;;2.03;;
76292;SDS011;67256;51.154;4.164;2024-03-23T10:00:32;13.52;;;3.03;;
76292;SDS011;67256;51.154;4.164;2024-03-23T10:02:58;17.17;;;3.22;;
76292;SDS011;67256;51.154;4.164;2024-03-23T10:05:27;13.80;;;3.03;;
76292;SDS011;67256;51.154;4.164;2024-03-23T10:07:54;10.82;;;2.80;;
76292;SDS011;67256;51.154;4.164;2024-03-23T10:10:20;14.18;;;2.50;;
76292;SDS011;67256;51.154;4.164;2024-03-23T10:12:49;14.95;;;2.78;;
76292;SDS011;67256;51.154;4.164;2024-03-23T10:15:18;11.73;;;3.13;;
76292;SDS011;67256;51.154;4.164;2024-03-23T10:17:48;12.20;;;3.17;;
76292;SDS011;67256;51.154;4.164;2024-03-23T10:20:18;10.90;;;2.88;;
76292;SDS011;67256;51.154;4.164;2024-03-23T10:22:48;12.05;;;3.20;;
76292;SDS011;67256;51.154;4.164;2024-03-23T10:25:15;9.63;;;2.72;;
76292;SDS011;67256;51.154;4.164;2024-03-23T10:27:41;8.05;;;1.52;;
76292;SDS011;67256;51.154;4.164;2024-03-23T10:30:09;11.18;;;1.75;;
76292;SDS011;67256;51.154;4.164;2024-03-23T10:32:36;10.00;;;2.20;;
76292;SDS011;67256;51.154;4.164;2024-03-23T10:35:16;12.15;;;1.88;;
76292;SDS011;67256;51.154;4.164;2024-03-23T10:37:49;8.60;;;1.83;;
76292;SDS011;67256;51.154;4.164;2024-03-23T10:40:18;11.05;;;2.53;;
76292;SDS011;67256;51.154;4.164;2024-03-23T10:42:44;6.07;;;1.65;;
76292;SDS011;67256;51.154;4.164;2024-03-23T10:45:10;10.30;;;1.88;;
76292;SDS011;67256;51.154;4.164;2024-03-23T10:47:36;6.20;;;1.80;;
76292;SDS011;67256;51.154;4.164;2024-03-23T10:50:05;9.80;;;1.48;;
76292;SDS011;67256;51.154;4.164;2024-03-23T10:52:32;5.97;;;2.00;;
76292;SDS011;67256;51.154;4.164;2024-03-23T10:54:58;7.32;;;2.58;;
76292;SDS011;67256;51.154;4.164;2024-03-23T10:57:27;9.00;;;2.00;;
76292;SDS011;67256;51.154;4.164;2024-03-23T11:00:06;8.63;;;1.98;;
76292;SDS011;67256;51.154;4.164;2024-03-23T11:02:33;9.77;;;2.30;;
76292;SDS011;67256;51.154;4.164;2024-03-23T11:04:59;10.13;;;2.15;;
76292;SDS011;67256;51.154;4.164;2024-03-23T11:07:31;7.70;;;1.90;;
76292;SDS011;67256;51.154;4.164;2024-03-23T11:09:58;9.32;;;1.90;;
76292;SDS011;67256;51.154;4.164;2024-03-23T11:12:28;7.50;;;2.13;;
76292;SDS011;67256;51.154;4.164;2024-03-23T11:15:13;8.98;;;2.17;;
76292;SDS011;67256;51.154;4.164;2024-03-23T11:17:39;4.95;;;1.80;;
76292;SDS011;67256;51.154;4.164;2024-03-23T11:20:06;7.55;;;2.08;;
76292;SDS011;67256;51.154;4.164;2024-03-23T11:25:03;12.55;;;3.22;;
76292;SDS011;67256;51.154;4.164;2024-03-23T11:27:37;9.88;;;2.17;;
76292;SDS011;67256;51.154;4.164;2024-03-23T11:32:38;8.75;;;2.33;;
76292;SDS011;67256;51.154;4.164;2024-03-23T11:35:04;7.22;;;2.33;;
76292;SDS011;67256;51.154;4.164;2024-03-23T11:37:30;12.10;;;3.42;;
76292;SDS011;67256;51.154;4.164;2024-03-23T11:39:56;5.47;;;1.92;;
76292;SDS011;67256;51.154;4.164;2024-03-23T11:42:22;11.65;;;2.17;;
76292;SDS011;67256;51.154;4.164;2024-03-23T11:44:48;7.03;;;2.00;;
76292;SDS011;67256;51.154;4.164;2024-03-23T11:47:13;7.32;;;2.45;;
76292;SDS011;67256;51.154;4.164;2024-03-23T11:49:39;11.20;;;1.85;;
76292;SDS011;67256;51.154;4.164;2024-03-23T11:52:09;5.13;;;1.73;;
76292;SDS011;67256;51.154;4.164;2024-03-23T11:54:35;8.00;;;2.15;;
76292;SDS011;67256;51.154;4.164;2024-03-23T11:57:01;6.70;;;3.05;;
76292;SDS011;67256;51.154;4.164;2024-03-23T12:02:11;9.75;;;3.05;;
76292;SDS011;67256;51.154;4.164;2024-03-23T12:04:40;10.23;;;3.13;;
76292;SDS011;67256;51.154;4.164;2024-03-23T12:07:09;9.68;;;2.67;;
76292;SDS011;67256;51.154;4.164;2024-03-23T12:09:36;12.43;;;2.80;;
76292;SDS011;67256;51.154;4.164;2024-03-23T12:12:06;11.50;;;3.28;;
76292;SDS011;67256;51.154;4.164;2024-03-23T12:14:32;10.57;;;2.78;;
76292;SDS011;67256;51.154;4.164;2024-03-23T12:17:07;7.95;;;2.42;;
76292;SDS011;67256;51.154;4.164;2024-03-23T12:19:42;18.88;;;3.13;;
76292;SDS011;67256;51.154;4.164;2024-03-23T12:22:10;8.40;;;2.30;;
76292;SDS011;67256;51.154;4.164;2024-03-23T12:24:36;7.32;;;2.15;;
76292;SDS011;67256;51.154;4.164;2024-03-23T12:27:02;11.32;;;2.67;;
76292;SDS011;67256;51.154;4.164;2024-03-23T12:29:30;6.68;;;1.92;;
76292;SDS011;67256;51.154;4.164;2024-03-23T12:31:59;9.02;;;2.53;;
76292;SDS011;67256;51.154;4.164;2024-03-23T12:34:25;10.48;;;2.20;;
76292;SDS011;67256;51.154;4.164;2024-03-23T12:36:52;8.52;;;2.28;;
76292;SDS011;67256;51.154;4.164;2024-03-23T12:39:17;6.47;;;2.08;;
76292;SDS011;67256;51.154;4.164;2024-03-23T12:41:44;10.07;;;2.40;;
76292;SDS011;67256;51.154;4.164;2024-03-23T12:44:10;9.98;;;2.50;;
76292;SDS011;67256;51.154;4.164;2024-03-23T12:46:37;7.35;;;1.58;;
76292;SDS011;67256;51.154;4.164;2024-03-23T12:49:03;8.70;;;1.92;;
76292;SDS011;67256;51.154;4.164;2024-03-23T12:51:29;6.40;;;1.50;;
76292;SDS011;67256;51.154;4.164;2024-03-23T12:53:54;4.25;;;1.63;;
76292;SDS011;67256;51.154;4.164;2024-03-23T12:56:20;7.00;;;2.08;;
76292;SDS011;67256;51.154;4.164;2024-03-23T12:58:46;11.45;;;1.98;;
76292;SDS011;67256;51.154;4.164;2024-03-23T13:01:16;7.75;;;2.72;;
76292;SDS011;67256;51.154;4.164;2024-03-23T13:03:47;7.10;;;2.20;;
76292;SDS011;67256;51.154;4.164;2024-03-23T13:06:14;9.98;;;3.95;;
76292;SDS011;67256;51.154;4.164;2024-03-23T13:08:40;8.73;;;2.15;;
76292;SDS011;67256;51.154;4.164;2024-03-23T13:11:07;5.70;;;1.60;;
76292;SDS011;67256;51.154;4.164;2024-03-23T13:13:34;6.40;;;1.60;;
76292;SDS011;67256;51.154;4.164;2024-03-23T13:16:00;3.95;;;1.20;;
76292;SDS011;67256;51.154;4.164;2024-03-23T13:18:26;4.40;;;0.85;;
76292;SDS011;67256;51.154;4.164;2024-03-23T13:20:51;3.28;;;0.90;;
76292;SDS011;67256;51.154;4.164;2024-03-23T13:23:17;1.90;;;0.50;;
76292;SDS011;67256;51.154;4.164;2024-03-23T13:25:49;4.15;;;0.93;;
76292;SDS011;67256;51.154;4.164;2024-03-23T13:28:19;2.22;;;1.10;;
76292;SDS011;67256;51.154;4.164;2024-03-23T13:30:55;2.92;;;0.93;;
76292;SDS011;67256;51.154;4.164;2024-03-23T13:33:21;2.38;;;0.90;;
76292;SDS011;67256;51.154;4.164;2024-03-23T13:38:20;1.60;;;0.63;;
76292;SDS011;67256;51.154;4.164;2024-03-23T13:40:52;3.15;;;0.70;;
76292;SDS011;67256;51.154;4.164;2024-03-23T13:43:22;5.75;;;1.00;;
76292;SDS011;67256;51.154;4.164;2024-03-23T13:45:49;3.83;;;1.17;;
76292;SDS011;67256;51.154;4.164;2024-03-23T13:48:18;6.80;;;1.88;;
76292;SDS011;67256;51.154;4.164;2024-03-23T13:50:46;7.90;;;1.67;;
76292;SDS011;67256;51.154;4.164;2024-03-23T13:53:13;7.43;;;1.80;;
76292;SDS011;67256;51.154;4.164;2024-03-23T13:55:46;8.93;;;2.65;;
76292;SDS011;67256;51.154;4.164;2024-03-23T13:58:13;5.25;;;2.25;;
76292;SDS011;67256;51.154;4.164;2024-03-23T14:00:39;10.00;;;2.10;;
76292;SDS011;67256;51.154;4.164;2024-03-23T14:03:05;7.72;;;3.05;;
76292;SDS011;67256;51.154;4.164;2024-03-23T14:05:31;10.98;;;2.85;;
76292;SDS011;67256;51.154;4.164;2024-03-23T14:07:56;12.23;;;3.28;;
76292;SDS011;67256;51.154;4.164;2024-03-23T14:10:22;12.73;;;2.17;;
76292;SDS011;67256;51.154;4.164;2024-03-23T14:12:48;5.97;;;1.60;;
76292;SDS011;67256;51.154;4.164;2024-03-23T14:15:13;7.63;;;1.92;;
76292;SDS011;67256;51.154;4.164;2024-03-23T14:17:39;6.57;;;1.98;;
76292;SDS011;67256;51.154;4.164;2024-03-23T14:20:05;7.72;;;1.80;;
76292;SDS011;67256;51.154;4.164;2024-03-23T14:22:34;8.57;;;2.05;;
76292;SDS011;67256;51.154;4.164;2024-03-23T14:24:59;6.95;;;1.88;;
76292;SDS011;67256;51.154;4.164;2024-03-23T14:27:25;6.15;;;1.50;;
76292;SDS011;67256;51.154;4.164;2024-03-23T14:29:51;6.32;;;1.70;;
76292;SDS011;67256;51.154;4.164;2024-03-23T14:32:17;6.35;;;1.98;;
76292;SDS011;67256;51.154;4.164;2024-03-23T14:34:42;7.93;;;1.85;;
76292;SDS011;67256;51.154;4.164;2024-03-23T14:37:08;3.90;;;0.93;;
76292;SDS011;67256;51.154;4.164;2024-03-23T14:39:34;3.95;;;1.17;;
76292;SDS011;67256;51.154;4.164;2024-03-23T14:42:02;5.35;;;1.25;;
76292;SDS011;67256;51.154;4.164;2024-03-23T14:44:28;3.95;;;1.17;;
76292;SDS011;67256;51.154;4.164;2024-03-23T14:46:54;5.82;;;1.20;;
76292;SDS011;67256;51.154;4.164;2024-03-23T14:49:20;7.68;;;1.40;;
76292;SDS011;67256;51.154;4.164;2024-03-23T14:51:46;6.20;;;1.35;;
76292;SDS011;67256;51.154;4.164;2024-03-23T14:54:11;4.78;;;1.10;;
76292;SDS011;67256;51.154;4.164;2024-03-23T14:56:38;8.05;;;1.73;;
76292;SDS011;67256;51.154;4.164;2024-03-23T14:59:04;4.05;;;1.20;;
76292;SDS011;67256;51.154;4.164;2024-03-23T15:01:31;6.75;;;1.50;;
76292;SDS011;67256;51.154;4.164;2024-03-23T15:03:57;6.82;;;1.50;;
76292;SDS011;67256;51.154;4.164;2024-03-23T15:06:22;6.22;;;1.60;;
76292;SDS011;67256;51.154;4.164;2024-03-23T15:08:48;5.00;;;1.60;;
76292;SDS011;67256;51.154;4.164;2024-03-23T15:11:14;5.03;;;1.70;;
76292;SDS011;67256;51.154;4.164;2024-03-23T15:13:43;3.50;;;1.10;;
76292;SDS011;67256;51.154;4.164;2024-03-23T15:16:08;2.70;;;1.00;;
76292;SDS011;67256;51.154;4.164;2024-03-23T15:18:35;5.93;;;2.15;;
76292;SDS011;67256;51.154;4.164;2024-03-23T15:21:01;3.55;;;1.95;;
76292;SDS011;67256;51.154;4.164;2024-03-23T15:23:30;3.95;;;1.30;;
76292;SDS011;67256;51.154;4.164;2024-03-23T15:25:57;6.85;;;1.80;;
76292;SDS011;67256;51.154;4.164;2024-03-23T15:28:23;6.28;;;1.83;;
76292;SDS011;67256;51.154;4.164;2024-03-23T15:30:51;5.65;;;1.73;;
76292;SDS011;67256;51.154;4.164;2024-03-23T15:33:17;5.50;;;2.05;;
76292;SDS011;67256;51.154;4.164;2024-03-23T15:35:42;5.28;;;2.45;;
76292;SDS011;67256;51.154;4.164;2024-03-23T15:38:08;13.82;;;2.20;;
76292;SDS011;67256;51.154;4.164;2024-03-23T15:40:34;7.15;;;2.13;;
76292;SDS011;67256;51.154;4.164;2024-03-23T15:43:00;7.00;;;2.45;;
76292;SDS011;67256;51.154;4.164;2024-03-23T15:45:26;5.10;;;2.17;;
76292;SDS011;67256;51.154;4.164;2024-03-23T15:47:52;8.65;;;2.20;;
76292;SDS011;67256;51.154;4.164;2024-03-23T15:50:18;7.85;;;2.00;;